sensor_id;sensor_type;location;lat;lon;timestamp;P1;durP1;ratioP1;P2;durP2;ratioP2
19329;SDS011;9799;48.214;16.388;2023-04-22T00:00:02;20.90;;;15.33;;
19329;SDS011;9799;48.214;16.388;2023-04-22T00:03:24;24.07;;;14.03;;
19329;SDS011;9799;48.214;16.388;2023-04-22T00:06:48;20.67;;;16.03;;
19329;SDS011;9799;48.214;16.388;2023-04-22T00:10:09;22.63;;;16.00;;
19329;SDS011;9799;48.214;16.388;2023-04-22T00:13:31;20.13;;;15.23;;
19329;SDS011;9799;48.214;16.388;2023-04-22T00:16:52;27.27;;;15.70;;
19329;SDS011;9799;48.214;16.388;2023-04-22T00:20:13;21.83;;;14.93;;
19329;SDS011;9799;48.214;16.388;2023-04-22T00:23:36;18.97;;;14.17;;
19329;SDS011;9799;48.214;16.388;2023-04-22T00:26:57;19.13;;;14.47;;
19329;SDS011;9799;48.214;16.388;2023-04-22T00:30:19;19.57;;;14.13;;
19329;SDS011;9799;48.214;16.388;2023-04-22T00:33:40;21.23;;;14.43;;
19329;SDS011;9799;48.214;16.388;2023-04-22T00:37:02;18.17;;;14.10;;
19329;SDS011;9799;48.214;16.388;2023-04-22T00:40:24;24.57;;;15.10;;
19329;SDS011;9799;48.214;16.388;2023-04-22T00:43:46;18.97;;;13.27;;
19329;SDS011;9799;48.214;16.388;2023-04-22T00:47:07;15.33;;;13.00;;
19329;SDS011;9799;48.214;16.388;2023-04-22T00:50:29;17.70;;;14.37;;
19329;SDS011;9799;48.214;16.388;2023-04-22T00:53:50;14.87;;;12.60;;
19329;SDS011;9799;48.214;16.388;2023-04-22T00:57:13;19.23;;;13.30;;
19329;SDS011;9799;48.214;16.388;2023-04-22T01:00:34;18.87;;;14.03;;
19329;SDS011;9799;48.214;16.388;2023-04-22T01:03:55;17.23;;;13.47;;
19329;SDS011;9799;48.214;16.388;2023-04-22T01:07:19;19.30;;;13.63;;
19329;SDS011;9799;48.214;16.388;2023-04-22T01:10:41;17.90;;;14.07;;
19329;SDS011;9799;48.214;16.388;2023-04-22T01:14:03;22.33;;;14.80;;
19329;SDS011;9799;48.214;16.388;2023-04-22T01:17:25;25.40;;;13.57;;
19329;SDS011;9799;48.214;16.388;2023-04-22T01:20:46;16.73;;;13.23;;
19329;SDS011;9799;48.214;16.388;2023-04-22T01:24:09;17.70;;;12.23;;
19329;SDS011;9799;48.214;16.388;2023-04-22T01:27:30;16.80;;;13.73;;
19329;SDS011;9799;48.214;16.388;2023-04-22T01:30:52;16.73;;;13.47;;
19329;SDS011;9799;48.214;16.388;2023-04-22T01:34:13;16.80;;;13.10;;
19329;SDS011;9799;48.214;16.388;2023-04-22T01:37:34;22.30;;;15.67;;
19329;SDS011;9799;48.214;16.388;2023-04-22T01:40:57;16.87;;;14.47;;
19329;SDS011;9799;48.214;16.388;2023-04-22T01:44:18;19.30;;;13.77;;
19329;SDS011;9799;48.214;16.388;2023-04-22T01:47:39;19.57;;;14.00;;
19329;SDS011;9799;48.214;16.388;2023-04-22T01:51:01;21.00;;;15.27;;
19329;SDS011;9799;48.214;16.388;2023-04-22T01:54:22;29.60;;;13.90;;
19329;SDS011;9799;48.214;16.388;2023-04-22T01:57:45;22.43;;;14.47;;
19329;SDS011;9799;48.214;16.388;2023-04-22T02:01:07;16.90;;;14.47;;
19329;SDS011;9799;48.214;16.388;2023-04-22T02:04:29;18.43;;;14.57;;
19329;SDS011;9799;48.214;16.388;2023-04-22T02:07:50;16.30;;;13.50;;
19329;SDS011;9799;48.214;16.388;2023-04-22T02:11:12;22.80;;;14.23;;
19329;SDS011;9799;48.214;16.388;2023-04-22T02:14:35;18.37;;;13.13;;
19329;SDS011;9799;48.214;16.388;2023-04-22T02:17:56;16.53;;;14.00;;
19329;SDS011;9799;48.214;16.388;2023-04-22T02:21:18;15.30;;;12.80;;
19329;SDS011;9799;48.214;16.388;2023-04-22T02:24:39;21.50;;;14.13;;
19329;SDS011;9799;48.214;16.388;2023-04-22T02:28:01;16.93;;;14.60;;
19329;SDS011;9799;48.214;16.388;2023-04-22T02:31:24;15.50;;;12.73;;
19329;SDS011;9799;48.214;16.388;2023-04-22T02:34:45;17.50;;;14.00;;
19329;SDS011;9799;48.214;16.388;2023-04-22T02:38:07;17.57;;;12.50;;
19329;SDS011;9799;48.214;16.388;2023-04-22T02:41:28;19.33;;;13.97;;
19329;SDS011;9799;48.214;16.388;2023-04-22T02:44:49;18.87;;;14.20;;
19329;SDS011;9799;48.214;16.388;2023-04-22T02:48:12;19.93;;;14.87;;
19329;SDS011;9799;48.214;16.388;2023-04-22T02:51:33;19.73;;;14.33;;
19329;SDS011;9799;48.214;16.388;2023-04-22T02:54:56;15.93;;;13.70;;
19329;SDS011;9799;48.214;16.388;2023-04-22T02:58:18;19.20;;;14.90;;
19329;SDS011;9799;48.214;16.388;2023-04-22T03:01:39;19.83;;;14.43;;
19329;SDS011;9799;48.214;16.388;2023-04-22T03:05:02;18.40;;;14.33;;
19329;SDS011;9799;48.214;16.388;2023-04-22T03:08:23;17.53;;;15.00;;
19329;SDS011;9799;48.214;16.388;2023-04-22T03:11:45;18.23;;;13.43;;
19329;SDS011;9799;48.214;16.388;2023-04-22T03:15:06;22.77;;;14.77;;
19329;SDS011;9799;48.214;16.388;2023-04-22T03:18:28;18.10;;;13.93;;
19329;SDS011;9799;48.214;16.388;2023-04-22T03:21:51;21.33;;;14.70;;
19329;SDS011;9799;48.214;16.388;2023-04-22T03:25:12;16.93;;;14.00;;
19329;SDS011;9799;48.214;16.388;2023-04-22T03:28:33;18.57;;;13.90;;
19329;SDS011;9799;48.214;16.388;2023-04-22T03:31:54;16.80;;;13.97;;
19329;SDS011;9799;48.214;16.388;2023-04-22T03:35:16;16.43;;;14.37;;
19329;SDS011;9799;48.214;16.388;2023-04-22T03:38:38;19.50;;;14.60;;
19329;SDS011;9799;48.214;16.388;2023-04-22T03:42:00;15.70;;;13.93;;
19329;SDS011;9799;48.214;16.388;2023-04-22T03:45:21;24.93;;;14.90;;
19329;SDS011;9799;48.214;16.388;2023-04-22T03:48:42;25.13;;;14.77;;
19329;SDS011;9799;48.214;16.388;2023-04-22T03:52:03;17.93;;;14.67;;
19329;SDS011;9799;48.214;16.388;2023-04-22T03:55:26;19.47;;;14.43;;
19329;SDS011;9799;48.214;16.388;2023-04-22T03:58:47;25.97;;;14.97;;
19329;SDS011;9799;48.214;16.388;2023-04-22T04:02:08;18.83;;;13.47;;
19329;SDS011;9799;48.214;16.388;2023-04-22T04:05:30;17.97;;;14.73;;
19329;SDS011;9799;48.214;16.388;2023-04-22T04:08:51;17.63;;;14.43;;
19329;SDS011;9799;48.214;16.388;2023-04-22T04:12:13;18.00;;;14.33;;
19329;SDS011;9799;48.214;16.388;2023-04-22T04:15:35;19.67;;;15.77;;
19329;SDS011;9799;48.214;16.388;2023-04-22T04:18:56;18.50;;;15.37;;
19329;SDS011;9799;48.214;16.388;2023-04-22T04:22:18;18.57;;;14.93;;
19329;SDS011;9799;48.214;16.388;2023-04-22T04:25:39;20.67;;;15.20;;
19329;SDS011;9799;48.214;16.388;2023-04-22T04:29:02;16.43;;;14.73;;
19329;SDS011;9799;48.214;16.388;2023-04-22T04:32:24;18.83;;;15.17;;
19329;SDS011;9799;48.214;16.388;2023-04-22T04:35:46;17.57;;;13.60;;
19329;SDS011;9799;48.214;16.388;2023-04-22T04:39:07;19.40;;;14.80;;
19329;SDS011;9799;48.214;16.388;2023-04-22T04:42:29;17.43;;;14.83;;
19329;SDS011;9799;48.214;16.388;2023-04-22T04:45:53;17.73;;;14.70;;
19329;SDS011;9799;48.214;16.388;2023-04-22T04:49:14;17.47;;;15.00;;
19329;SDS011;9799;48.214;16.388;2023-04-22T04:52:36;18.53;;;14.67;;
19329;SDS011;9799;48.214;16.388;2023-04-22T04:55:57;27.63;;;14.57;;
19329;SDS011;9799;48.214;16.388;2023-04-22T04:59:18;18.43;;;16.17;;
19329;SDS011;9799;48.214;16.388;2023-04-22T05:02:41;18.97;;;15.23;;
19329;SDS011;9799;48.214;16.388;2023-04-22T05:06:02;22.77;;;15.13;;
19329;SDS011;9799;48.214;16.388;2023-04-22T05:09:24;17.30;;;15.40;;
19329;SDS011;9799;48.214;16.388;2023-04-22T05:12:45;29.03;;;15.87;;
19329;SDS011;9799;48.214;16.388;2023-04-22T05:16:07;23.53;;;16.37;;
19329;SDS011;9799;48.214;16.388;2023-04-22T05:19:29;18.23;;;16.07;;
19329;SDS011;9799;48.214;16.388;2023-04-22T05:22:50;22.63;;;15.73;;
19329;SDS011;9799;48.214;16.388;2023-04-22T05:26:11;20.63;;;16.23;;
19329;SDS011;9799;48.214;16.388;2023-04-22T05:29:33;18.03;;;16.07;;
19329;SDS011;9799;48.214;16.388;2023-04-22T05:32:54;19.40;;;16.10;;
19329;SDS011;9799;48.214;16.388;2023-04-22T05:36:16;17.60;;;15.70;;
19329;SDS011;9799;48.214;16.388;2023-04-22T05:39:37;19.37;;;16.10;;
19329;SDS011;9799;48.214;16.388;2023-04-22T05:42:59;20.40;;;17.03;;
19329;SDS011;9799;48.214;16.388;2023-04-22T05:46:20;22.83;;;16.63;;
19329;SDS011;9799;48.214;16.388;2023-04-22T05:49:43;23.77;;;16.97;;
19329;SDS011;9799;48.214;16.388;2023-04-22T05:53:05;19.47;;;16.53;;
19329;SDS011;9799;48.214;16.388;2023-04-22T05:56:26;19.83;;;17.43;;
19329;SDS011;9799;48.214;16.388;2023-04-22T05:59:48;20.30;;;16.80;;
19329;SDS011;9799;48.214;16.388;2023-04-22T06:03:09;17.53;;;15.67;;
19329;SDS011;9799;48.214;16.388;2023-04-22T06:06:30;23.03;;;15.57;;
19329;SDS011;9799;48.214;16.388;2023-04-22T06:09:53;18.00;;;14.97;;
19329;SDS011;9799;48.214;16.388;2023-04-22T06:13:14;19.23;;;15.57;;
19329;SDS011;9799;48.214;16.388;2023-04-22T06:16:36;17.53;;;15.23;;
19329;SDS011;9799;48.214;16.388;2023-04-22T06:19:57;19.27;;;14.73;;
19329;SDS011;9799;48.214;16.388;2023-04-22T06:23:18;15.87;;;14.20;;
19329;SDS011;9799;48.214;16.388;2023-04-22T06:26:41;19.60;;;14.57;;
19329;SDS011;9799;48.214;16.388;2023-04-22T06:30:02;18.50;;;14.57;;
19329;SDS011;9799;48.214;16.388;2023-04-22T06:33:23;23.20;;;15.47;;
19329;SDS011;9799;48.214;16.388;2023-04-22T06:36:45;17.33;;;13.33;;
19329;SDS011;9799;48.214;16.388;2023-04-22T06:40:06;27.90;;;14.77;;
19329;SDS011;9799;48.214;16.388;2023-04-22T06:43:30;15.13;;;12.40;;
19329;SDS011;9799;48.214;16.388;2023-04-22T06:46:51;16.03;;;13.33;;
19329;SDS011;9799;48.214;16.388;2023-04-22T06:50:12;19.70;;;14.17;;
19329;SDS011;9799;48.214;16.388;2023-04-22T06:53:33;15.70;;;13.37;;
19329;SDS011;9799;48.214;16.388;2023-04-22T06:56:55;15.97;;;13.20;;
19329;SDS011;9799;48.214;16.388;2023-04-22T07:00:17;18.53;;;14.23;;
19329;SDS011;9799;48.214;16.388;2023-04-22T07:03:39;17.83;;;13.57;;
19329;SDS011;9799;48.214;16.388;2023-04-22T07:07:00;16.00;;;12.87;;
19329;SDS011;9799;48.214;16.388;2023-04-22T07:10:22;16.33;;;14.23;;
19329;SDS011;9799;48.214;16.388;2023-04-22T07:13:43;16.37;;;14.13;;
19329;SDS011;9799;48.214;16.388;2023-04-22T07:17:06;19.07;;;13.87;;
19329;SDS011;9799;48.214;16.388;2023-04-22T07:20:27;15.20;;;13.60;;
19329;SDS011;9799;48.214;16.388;2023-04-22T07:23:48;16.07;;;12.43;;
19329;SDS011;9799;48.214;16.388;2023-04-22T07:27:10;16.47;;;14.03;;
19329;SDS011;9799;48.214;16.388;2023-04-22T07:30:31;15.90;;;14.17;;
19329;SDS011;9799;48.214;16.388;2023-04-22T07:33:53;13.80;;;12.50;;
19329;SDS011;9799;48.214;16.388;2023-04-22T07:37:15;15.57;;;13.00;;
19329;SDS011;9799;48.214;16.388;2023-04-22T07:40:36;16.90;;;13.43;;
19329;SDS011;9799;48.214;16.388;2023-04-22T07:43:57;21.27;;;15.23;;
19329;SDS011;9799;48.214;16.388;2023-04-22T07:47:19;17.33;;;14.80;;
19329;SDS011;9799;48.214;16.388;2023-04-22T07:50:41;17.90;;;14.50;;
19329;SDS011;9799;48.214;16.388;2023-04-22T07:54:02;17.70;;;14.53;;
19329;SDS011;9799;48.214;16.388;2023-04-22T07:57:24;14.90;;;13.30;;
19329;SDS011;9799;48.214;16.388;2023-04-22T08:00:45;14.87;;;13.03;;
19329;SDS011;9799;48.214;16.388;2023-04-22T08:04:06;16.23;;;12.53;;
19329;SDS011;9799;48.214;16.388;2023-04-22T08:07:29;15.60;;;13.27;;
19329;SDS011;9799;48.214;16.388;2023-04-22T08:10:50;18.17;;;14.53;;
19329;SDS011;9799;48.214;16.388;2023-04-22T08:14:11;14.63;;;12.67;;
19329;SDS011;9799;48.214;16.388;2023-04-22T08:17:33;13.80;;;12.03;;
19329;SDS011;9799;48.214;16.388;2023-04-22T08:20:54;14.17;;;12.23;;
19329;SDS011;9799;48.214;16.388;2023-04-22T08:24:17;13.10;;;11.80;;
19329;SDS011;9799;48.214;16.388;2023-04-22T08:27:38;14.10;;;11.13;;
19329;SDS011;9799;48.214;16.388;2023-04-22T08:30:59;14.03;;;11.83;;
19329;SDS011;9799;48.214;16.388;2023-04-22T08:34:21;12.17;;;10.57;;
19329;SDS011;9799;48.214;16.388;2023-04-22T08:37:43;11.47;;;9.33;;
19329;SDS011;9799;48.214;16.388;2023-04-22T08:41:06;13.50;;;10.47;;
19329;SDS011;9799;48.214;16.388;2023-04-22T08:44:27;18.47;;;11.23;;
19329;SDS011;9799;48.214;16.388;2023-04-22T08:47:49;14.77;;;9.53;;
19329;SDS011;9799;48.214;16.388;2023-04-22T08:51:12;10.97;;;9.50;;
19329;SDS011;9799;48.214;16.388;2023-04-22T08:54:34;11.03;;;9.33;;
19329;SDS011;9799;48.214;16.388;2023-04-22T08:57:57;13.37;;;8.87;;
19329;SDS011;9799;48.214;16.388;2023-04-22T09:01:19;9.07;;;8.10;;
19329;SDS011;9799;48.214;16.388;2023-04-22T09:04:42;9.17;;;8.17;;
19329;SDS011;9799;48.214;16.388;2023-04-22T09:08:06;20.17;;;8.83;;
19329;SDS011;9799;48.214;16.388;2023-04-22T09:11:28;11.07;;;8.10;;
19329;SDS011;9799;48.214;16.388;2023-04-22T09:14:51;11.27;;;8.10;;
19329;SDS011;9799;48.214;16.388;2023-04-22T09:18:15;11.50;;;7.40;;
19329;SDS011;9799;48.214;16.388;2023-04-22T09:21:38;7.00;;;6.30;;
19329;SDS011;9799;48.214;16.388;2023-04-22T09:25:00;11.27;;;7.37;;
19329;SDS011;9799;48.214;16.388;2023-04-22T09:28:23;14.13;;;7.20;;
19329;SDS011;9799;48.214;16.388;2023-04-22T09:31:48;12.20;;;6.67;;
19329;SDS011;9799;48.214;16.388;2023-04-22T09:35:10;13.17;;;6.73;;
19329;SDS011;9799;48.214;16.388;2023-04-22T09:38:31;9.93;;;6.23;;
19329;SDS011;9799;48.214;16.388;2023-04-22T09:41:53;10.47;;;6.07;;
19329;SDS011;9799;48.214;16.388;2023-04-22T09:45:23;7.50;;;6.57;;
19329;SDS011;9799;48.214;16.388;2023-04-22T09:48:46;11.38;;;5.63;;
19329;SDS011;9799;48.214;16.388;2023-04-22T09:52:09;10.82;;;6.30;;
19329;SDS011;9799;48.214;16.388;2023-04-22T09:55:31;15.57;;;6.35;;
19329;SDS011;9799;48.214;16.388;2023-04-22T09:58:53;13.57;;;5.70;;
19329;SDS011;9799;48.214;16.388;2023-04-22T10:02:15;7.97;;;6.20;;
19329;SDS011;9799;48.214;16.388;2023-04-22T10:05:37;10.48;;;5.57;;
19329;SDS011;9799;48.214;16.388;2023-04-22T10:08:59;12.00;;;6.13;;
19329;SDS011;9799;48.214;16.388;2023-04-22T10:12:21;8.13;;;5.72;;
19329;SDS011;9799;48.214;16.388;2023-04-22T10:15:46;11.00;;;5.43;;
19329;SDS011;9799;48.214;16.388;2023-04-22T10:19:09;6.15;;;5.38;;
19329;SDS011;9799;48.214;16.388;2023-04-22T10:22:35;8.48;;;5.88;;
19329;SDS011;9799;48.214;16.388;2023-04-22T10:25:57;6.78;;;5.40;;
19329;SDS011;9799;48.214;16.388;2023-04-22T10:29:19;5.88;;;4.45;;
19329;SDS011;9799;48.214;16.388;2023-04-22T10:32:41;9.10;;;5.40;;
19329;SDS011;9799;48.214;16.388;2023-04-22T10:36:06;6.65;;;5.57;;
19329;SDS011;9799;48.214;16.388;2023-04-22T10:39:30;9.60;;;5.07;;
19329;SDS011;9799;48.214;16.388;2023-04-22T10:42:52;8.00;;;5.22;;
19329;SDS011;9799;48.214;16.388;2023-04-22T10:50:17;9.57;;;5.10;;
19329;SDS011;9799;48.214;16.388;2023-04-22T10:53:40;11.57;;;6.10;;
19329;SDS011;9799;48.214;16.388;2023-04-22T10:57:04;12.80;;;6.20;;
19329;SDS011;9799;48.214;16.388;2023-04-22T11:00:27;5.78;;;5.15;;
19329;SDS011;9799;48.214;16.388;2023-04-22T11:03:50;6.93;;;5.65;;
19329;SDS011;9799;48.214;16.388;2023-04-22T11:07:12;8.90;;;5.43;;
19329;SDS011;9799;48.214;16.388;2023-04-22T11:10:35;6.30;;;5.13;;
19329;SDS011;9799;48.214;16.388;2023-04-22T11:14:01;6.95;;;5.93;;
19329;SDS011;9799;48.214;16.388;2023-04-22T11:17:23;7.90;;;5.43;;
19329;SDS011;9799;48.214;16.388;2023-04-22T11:20:45;6.38;;;4.88;;
19329;SDS011;9799;48.214;16.388;2023-04-22T11:24:08;6.53;;;5.05;;
19329;SDS011;9799;48.214;16.388;2023-04-22T11:27:29;6.90;;;5.25;;
19329;SDS011;9799;48.214;16.388;2023-04-22T11:30:52;8.02;;;5.20;;
19329;SDS011;9799;48.214;16.388;2023-04-22T11:34:22;6.43;;;5.13;;
19329;SDS011;9799;48.214;16.388;2023-04-22T11:37:44;5.50;;;5.00;;
19329;SDS011;9799;48.214;16.388;2023-04-22T11:41:06;10.82;;;5.05;;
19329;SDS011;9799;48.214;16.388;2023-04-22T11:44:27;8.70;;;5.32;;
19329;SDS011;9799;48.214;16.388;2023-04-22T11:47:50;6.57;;;5.45;;
19329;SDS011;9799;48.214;16.388;2023-04-22T11:51:12;8.73;;;5.18;;
19329;SDS011;9799;48.214;16.388;2023-04-22T11:54:34;11.43;;;5.57;;
19329;SDS011;9799;48.214;16.388;2023-04-22T11:57:57;7.40;;;4.45;;
19329;SDS011;9799;48.214;16.388;2023-04-22T12:01:19;8.15;;;5.60;;
19329;SDS011;9799;48.214;16.388;2023-04-22T12:04:43;7.63;;;5.07;;
19329;SDS011;9799;48.214;16.388;2023-04-22T12:08:08;8.68;;;4.93;;
19329;SDS011;9799;48.214;16.388;2023-04-22T12:11:30;6.07;;;4.70;;
19329;SDS011;9799;48.214;16.388;2023-04-22T12:14:51;4.95;;;4.45;;
19329;SDS011;9799;48.214;16.388;2023-04-22T12:18:13;7.00;;;5.15;;
19329;SDS011;9799;48.214;16.388;2023-04-22T12:21:35;6.60;;;5.72;;
19329;SDS011;9799;48.214;16.388;2023-04-22T12:24:57;8.93;;;5.22;;
19329;SDS011;9799;48.214;16.388;2023-04-22T12:28:18;5.75;;;5.05;;
19329;SDS011;9799;48.214;16.388;2023-04-22T12:31:40;10.27;;;4.75;;
19329;SDS011;9799;48.214;16.388;2023-04-22T12:35:01;7.35;;;4.38;;
19329;SDS011;9799;48.214;16.388;2023-04-22T12:38:24;4.60;;;4.18;;
19329;SDS011;9799;48.214;16.388;2023-04-22T12:41:45;5.75;;;4.90;;
19329;SDS011;9799;48.214;16.388;2023-04-22T12:45:09;12.38;;;5.13;;
19329;SDS011;9799;48.214;16.388;2023-04-22T12:48:31;6.28;;;5.15;;
19329;SDS011;9799;48.214;16.388;2023-04-22T12:51:52;5.57;;;4.40;;
19329;SDS011;9799;48.214;16.388;2023-04-22T12:55:14;7.10;;;4.78;;
19329;SDS011;9799;48.214;16.388;2023-04-22T12:58:36;4.53;;;4.13;;
19329;SDS011;9799;48.214;16.388;2023-04-22T13:01:57;4.57;;;4.10;;
19329;SDS011;9799;48.214;16.388;2023-04-22T13:05:18;6.10;;;4.80;;
19329;SDS011;9799;48.214;16.388;2023-04-22T13:08:40;11.50;;;5.45;;
19329;SDS011;9799;48.214;16.388;2023-04-22T13:12:02;8.38;;;5.45;;
19329;SDS011;9799;48.214;16.388;2023-04-22T13:15:24;5.70;;;4.32;;
19329;SDS011;9799;48.214;16.388;2023-04-22T13:18:45;9.18;;;4.40;;
19329;SDS011;9799;48.214;16.388;2023-04-22T13:22:06;8.98;;;4.78;;
19329;SDS011;9799;48.214;16.388;2023-04-22T13:25:28;5.35;;;4.85;;
19329;SDS011;9799;48.214;16.388;2023-04-22T13:28:50;7.70;;;4.10;;
19329;SDS011;9799;48.214;16.388;2023-04-22T13:32:11;9.00;;;4.72;;
19329;SDS011;9799;48.214;16.388;2023-04-22T13:35:33;6.35;;;4.32;;
19329;SDS011;9799;48.214;16.388;2023-04-22T13:38:55;5.72;;;4.55;;
19329;SDS011;9799;48.214;16.388;2023-04-22T13:42:17;5.63;;;4.93;;
19329;SDS011;9799;48.214;16.388;2023-04-22T13:45:40;6.13;;;5.05;;
19329;SDS011;9799;48.214;16.388;2023-04-22T13:49:01;5.05;;;4.55;;
19329;SDS011;9799;48.214;16.388;2023-04-22T13:52:22;7.35;;;5.22;;
19329;SDS011;9799;48.214;16.388;2023-04-22T13:55:43;8.38;;;5.18;;
19329;SDS011;9799;48.214;16.388;2023-04-22T13:59:06;7.55;;;4.82;;
19329;SDS011;9799;48.214;16.388;2023-04-22T14:02:29;9.55;;;5.35;;
19329;SDS011;9799;48.214;16.388;2023-04-22T14:05:50;4.97;;;4.30;;
19329;SDS011;9799;48.214;16.388;2023-04-22T14:09:12;6.88;;;4.75;;
19329;SDS011;9799;48.214;16.388;2023-04-22T14:12:33;6.55;;;5.05;;
19329;SDS011;9799;48.214;16.388;2023-04-22T14:15:55;9.30;;;4.80;;
19329;SDS011;9799;48.214;16.388;2023-04-22T14:19:18;17.58;;;5.32;;
19329;SDS011;9799;48.214;16.388;2023-04-22T14:22:39;6.93;;;5.28;;
19329;SDS011;9799;48.214;16.388;2023-04-22T14:26:00;9.43;;;5.65;;
19329;SDS011;9799;48.214;16.388;2023-04-22T14:29:22;5.13;;;4.63;;
19329;SDS011;9799;48.214;16.388;2023-04-22T14:32:43;12.32;;;4.85;;
19329;SDS011;9799;48.214;16.388;2023-04-22T14:36:06;7.03;;;4.80;;
19329;SDS011;9799;48.214;16.388;2023-04-22T14:39:27;4.75;;;4.32;;
19329;SDS011;9799;48.214;16.388;2023-04-22T14:42:48;7.65;;;4.65;;
19329;SDS011;9799;48.214;16.388;2023-04-22T14:46:10;8.02;;;4.95;;
19329;SDS011;9799;48.214;16.388;2023-04-22T14:49:31;8.75;;;4.15;;
19329;SDS011;9799;48.214;16.388;2023-04-22T14:52:54;6.18;;;4.55;;
19329;SDS011;9799;48.214;16.388;2023-04-22T14:56:15;6.70;;;4.50;;
19329;SDS011;9799;48.214;16.388;2023-04-22T14:59:37;6.20;;;4.57;;
19329;SDS011;9799;48.214;16.388;2023-04-22T15:02:58;6.20;;;5.07;;
19329;SDS011;9799;48.214;16.388;2023-04-22T15:06:19;6.13;;;5.07;;
19329;SDS011;9799;48.214;16.388;2023-04-22T15:09:43;6.53;;;4.38;;
19329;SDS011;9799;48.214;16.388;2023-04-22T15:13:04;4.47;;;4.07;;
19329;SDS011;9799;48.214;16.388;2023-04-22T15:16:25;9.00;;;4.70;;
19329;SDS011;9799;48.214;16.388;2023-04-22T15:19:47;6.43;;;4.70;;
19329;SDS011;9799;48.214;16.388;2023-04-22T15:23:08;5.63;;;4.80;;
19329;SDS011;9799;48.214;16.388;2023-04-22T15:26:31;5.97;;;4.65;;
19329;SDS011;9799;48.214;16.388;2023-04-22T15:29:52;6.10;;;4.57;;
19329;SDS011;9799;48.214;16.388;2023-04-22T15:33:13;10.77;;;5.18;;
19329;SDS011;9799;48.214;16.388;2023-04-22T15:36:35;8.45;;;4.35;;
19329;SDS011;9799;48.214;16.388;2023-04-22T15:39:56;8.30;;;4.68;;
19329;SDS011;9799;48.214;16.388;2023-04-22T15:43:19;5.38;;;4.30;;
19329;SDS011;9799;48.214;16.388;2023-04-22T15:46:40;6.10;;;4.75;;
19329;SDS011;9799;48.214;16.388;2023-04-22T15:50:01;4.90;;;3.85;;
19329;SDS011;9799;48.214;16.388;2023-04-22T15:53:27;7.53;;;4.03;;
19329;SDS011;9799;48.214;16.388;2023-04-22T15:56:48;7.07;;;4.63;;
19329;SDS011;9799;48.214;16.388;2023-04-22T16:00:11;6.13;;;4.55;;
19329;SDS011;9799;48.214;16.388;2023-04-22T16:03:33;7.47;;;4.47;;
19329;SDS011;9799;48.214;16.388;2023-04-22T16:06:54;4.45;;;4.05;;
19329;SDS011;9799;48.214;16.388;2023-04-22T16:10:17;5.22;;;4.38;;
19329;SDS011;9799;48.214;16.388;2023-04-22T16:13:38;6.10;;;4.72;;
19329;SDS011;9799;48.214;16.388;2023-04-22T16:17:01;5.05;;;4.05;;
19329;SDS011;9799;48.214;16.388;2023-04-22T16:20:24;8.25;;;5.15;;
19329;SDS011;9799;48.214;16.388;2023-04-22T16:23:45;10.20;;;4.70;;
19329;SDS011;9799;48.214;16.388;2023-04-22T16:27:07;4.88;;;4.38;;
19329;SDS011;9799;48.214;16.388;2023-04-22T16:30:28;7.18;;;4.68;;
19329;SDS011;9799;48.214;16.388;2023-04-22T16:33:51;4.50;;;4.10;;
19329;SDS011;9799;48.214;16.388;2023-04-22T16:37:12;9.63;;;5.18;;
19329;SDS011;9799;48.214;16.388;2023-04-22T16:40:34;8.70;;;4.78;;
19329;SDS011;9799;48.214;16.388;2023-04-22T16:43:58;6.65;;;4.47;;
19329;SDS011;9799;48.214;16.388;2023-04-22T16:47:19;7.25;;;4.90;;
19329;SDS011;9799;48.214;16.388;2023-04-22T16:50:41;7.25;;;5.43;;
19329;SDS011;9799;48.214;16.388;2023-04-22T16:54:03;14.15;;;5.10;;
19329;SDS011;9799;48.214;16.388;2023-04-22T16:57:24;13.90;;;4.68;;
19329;SDS011;9799;48.214;16.388;2023-04-22T17:00:45;6.03;;;5.32;;
19329;SDS011;9799;48.214;16.388;2023-04-22T17:04:06;5.40;;;4.20;;
19329;SDS011;9799;48.214;16.388;2023-04-22T17:07:30;9.90;;;4.60;;
19329;SDS011;9799;48.214;16.388;2023-04-22T17:10:52;10.38;;;5.13;;
19329;SDS011;9799;48.214;16.388;2023-04-22T17:14:13;6.57;;;4.50;;
19329;SDS011;9799;48.214;16.388;2023-04-22T17:17:34;6.63;;;4.22;;
19329;SDS011;9799;48.214;16.388;2023-04-22T17:20:55;5.38;;;4.55;;
19329;SDS011;9799;48.214;16.388;2023-04-22T17:24:18;5.88;;;3.88;;
19329;SDS011;9799;48.214;16.388;2023-04-22T17:27:39;5.28;;;4.05;;
19329;SDS011;9799;48.214;16.388;2023-04-22T17:31:00;9.13;;;4.72;;
19329;SDS011;9799;48.214;16.388;2023-04-22T17:34:23;10.40;;;5.70;;
19329;SDS011;9799;48.214;16.388;2023-04-22T17:37:44;8.05;;;3.97;;
19329;SDS011;9799;48.214;16.388;2023-04-22T17:41:06;7.97;;;4.90;;
19329;SDS011;9799;48.214;16.388;2023-04-22T17:44:28;4.45;;;4.05;;
19329;SDS011;9799;48.214;16.388;2023-04-22T17:47:49;6.70;;;4.80;;
19329;SDS011;9799;48.214;16.388;2023-04-22T17:51:11;5.25;;;4.22;;
19329;SDS011;9799;48.214;16.388;2023-04-22T17:54:32;6.13;;;5.10;;
19329;SDS011;9799;48.214;16.388;2023-04-22T17:57:55;7.85;;;5.15;;
19329;SDS011;9799;48.214;16.388;2023-04-22T18:01:18;6.65;;;4.43;;
19329;SDS011;9799;48.214;16.388;2023-04-22T18:04:39;4.72;;;4.18;;
19329;SDS011;9799;48.214;16.388;2023-04-22T18:08:00;7.03;;;4.68;;
19329;SDS011;9799;48.214;16.388;2023-04-22T18:11:22;8.80;;;5.22;;
19329;SDS011;9799;48.214;16.388;2023-04-22T18:14:45;4.90;;;4.40;;
19329;SDS011;9799;48.214;16.388;2023-04-22T18:18:07;5.35;;;4.57;;
19329;SDS011;9799;48.214;16.388;2023-04-22T18:21:28;7.70;;;5.30;;
19329;SDS011;9799;48.214;16.388;2023-04-22T18:24:49;6.95;;;4.47;;
19329;SDS011;9799;48.214;16.388;2023-04-22T18:28:11;7.05;;;4.95;;
19329;SDS011;9799;48.214;16.388;2023-04-22T18:31:33;6.80;;;5.00;;
19329;SDS011;9799;48.214;16.388;2023-04-22T18:34:55;9.75;;;4.78;;
19329;SDS011;9799;48.214;16.388;2023-04-22T18:38:17;9.60;;;5.32;;
19329;SDS011;9799;48.214;16.388;2023-04-22T18:41:38;11.98;;;4.93;;
19329;SDS011;9799;48.214;16.388;2023-04-22T18:45:01;6.40;;;4.50;;
19329;SDS011;9799;48.214;16.388;2023-04-22T18:48:24;5.13;;;4.63;;
19329;SDS011;9799;48.214;16.388;2023-04-22T18:51:46;12.73;;;5.30;;
19329;SDS011;9799;48.214;16.388;2023-04-22T18:55:08;6.15;;;4.80;;
19329;SDS011;9799;48.214;16.388;2023-04-22T18:58:30;7.10;;;5.00;;
19329;SDS011;9799;48.214;16.388;2023-04-22T19:01:51;5.63;;;5.13;;
19329;SDS011;9799;48.214;16.388;2023-04-22T19:05:14;6.68;;;4.78;;
19329;SDS011;9799;48.214;16.388;2023-04-22T19:08:36;8.70;;;5.38;;
19329;SDS011;9799;48.214;16.388;2023-04-22T19:11:58;7.75;;;5.00;;
19329;SDS011;9799;48.214;16.388;2023-04-22T19:15:22;6.00;;;5.40;;
19329;SDS011;9799;48.214;16.388;2023-04-22T19:18:44;9.18;;;5.18;;
19329;SDS011;9799;48.214;16.388;2023-04-22T19:22:06;7.22;;;5.30;;
19329;SDS011;9799;48.214;16.388;2023-04-22T19:25:28;8.85;;;5.68;;
19329;SDS011;9799;48.214;16.388;2023-04-22T19:28:50;7.13;;;5.25;;
19329;SDS011;9799;48.214;16.388;2023-04-22T19:32:11;8.02;;;5.22;;
19329;SDS011;9799;48.214;16.388;2023-04-22T19:35:32;7.75;;;4.93;;
19329;SDS011;9799;48.214;16.388;2023-04-22T19:38:55;11.25;;;5.82;;
19329;SDS011;9799;48.214;16.388;2023-04-22T19:42:17;9.35;;;5.22;;
19329;SDS011;9799;48.214;16.388;2023-04-22T19:45:39;8.50;;;5.38;;
19329;SDS011;9799;48.214;16.388;2023-04-22T19:49:01;7.88;;;6.10;;
19329;SDS011;9799;48.214;16.388;2023-04-22T19:52:23;9.80;;;5.35;;
19329;SDS011;9799;48.214;16.388;2023-04-22T19:55:46;14.17;;;6.30;;
19329;SDS011;9799;48.214;16.388;2023-04-22T19:59:08;10.57;;;5.75;;
19329;SDS011;9799;48.214;16.388;2023-04-22T20:02:33;7.00;;;5.22;;